Time;durP1;ratioP1;P1;durP2;ratioP2;P2;SDS_P1;SDS_P2;PMS_P1;PMS_P2;Temp;Humidity;BMP_temperature;BMP_pressure;BME280_temperature;BME280_humidity;BME280_pressure;Samples;Min_cycle;Max_cycle;Signal;HPM_P1;HPM_P2
2021/12/05 00:17:36;;;;;;;;;;;;;;;;;;5036157;28;20163;-76
2021/12/05 00:22:36;;;;;;;0.60;0.30;;;;;;;;;;5035183;28;20037;-74
2021/12/05 00:25:07;;;;;;;1.08;0.40;;;;;;;;;;5035376;28;20025;-76
2021/12/05 00:41:45;;;;;;;0.30;0.17;;;;;;;;;;5034983;28;20138;-75
2021/12/05 01:00:44;;;;;;;0.30;0.13;;;;;;;;;;5026024;28;20044;-74
2021/12/05 01:08:36;;;;;;;0.28;0.10;;;;;;;;;;5034591;28;20052;-75
2021/12/05 01:16:32;;;;;;;0.40;0.10;;;;;;;;;;5034519;28;20044;-74
2021/12/05 01:18:58;;;;;;;0.28;0.15;;;;;;;;;;5034120;28;20025;-74
2021/12/05 01:21:26;;;;;;;0.10;0.10;;;;;;;;;;5033873;28;20151;-75
2021/12/05 01:32:40;;;;;;;0.70;0.20;;;;;;;;;;5025969;28;20052;-75
2021/12/05 01:35:29;;;;;;;1.25;0.10;;;;;;;;;;5033769;28;20041;-74
2021/12/05 01:38:16;;;;;;;1.38;0.10;;;;;;;;;;5033832;28;20029;-74
2021/12/05 01:54:36;;;;;;;0.10;0.00;;;;;;;;;;5033512;28;20045;-74
2021/12/05 02:32:46;;;;;;;1.90;0.70;;;;;;;;;;5027301;28;20150;-74
2021/12/05 02:41:10;;;;;;;1.95;0.90;;;;;;;;;;4991971;28;20038;-74
2021/12/05 02:43:41;;;;;;;3.58;1.20;;;;;;;;;;4992215;28;20452;-73
2021/12/05 02:46:09;;;;;;;2.58;1.00;;;;;;;;;;5016337;28;20052;-75
2021/12/05 02:48:37;;;;;;;1.88;0.80;;;;;;;;;;5033029;28;20021;-74
2021/12/05 02:51:08;;;;;;;1.58;0.70;;;;;;;;;;5033016;28;20057;-74
2021/12/05 02:53:41;;;;;;;3.00;1.00;;;;;;;;;;5032918;28;20033;-75
2021/12/05 02:56:08;;;;;;;1.73;0.70;;;;;;;;;;5033047;28;20489;-74
2021/12/05 02:58:45;;;;;;;3.03;0.60;;;;;;;;;;5033026;28;20374;-75
2021/12/05 03:01:23;;;;;;;1.48;0.70;;;;;;;;;;5032799;28;20033;-74
2021/12/05 03:03:52;;;;;;;1.33;0.40;;;;;;;;;;5032229;28;20446;-74
2021/12/05 03:06:23;;;;;;;0.40;0.20;;;;;;;;;;5032899;28;20374;-75
2021/12/05 03:08:55;;;;;;;0.50;0.20;;;;;;;;;;5033028;28;20025;-75
2021/12/05 03:11:22;;;;;;;1.40;0.40;;;;;;;;;;5032450;28;20061;-74
2021/12/05 03:13:48;;;;;;;2.40;0.50;;;;;;;;;;5032496;28;20482;-73
2021/12/05 03:16:16;;;;;;;0.32;0.25;;;;;;;;;;5031933;28;20025;-74
2021/12/05 03:18:43;;;;;;;0.32;0.20;;;;;;;;;;5032707;28;20026;-74
2021/12/05 03:21:10;;;;;;;0.43;0.20;;;;;;;;;;5034120;28;20040;-74
2021/12/05 03:23:37;;;;;;;0.60;0.32;;;;;;;;;;5036365;28;20033;-74
2021/12/05 03:26:08;;;;;;;0.60;0.30;;;;;;;;;;5036281;28;20420;-74
2021/12/05 03:28:34;;;;;;;;;;;;;;;;;;5036784;28;20025;-74
2021/12/05 03:31:01;;;;;;;0.52;0.10;;;;;;;;;;5035867;28;19939;-75
2021/12/05 03:33:27;;;;;;;0.40;0.20;;;;;;;;;;5036036;28;20026;-73
2021/12/05 03:35:53;;;;;;;2.08;0.32;;;;;;;;;;5018797;28;20041;-75
2021/12/05 03:38:19;;;;;;;3.05;0.10;;;;;;;;;;5036152;28;20193;-74
2021/12/05 03:40:45;;;;;;;0.25;0.20;;;;;;;;;;5035827;28;20033;-74
2021/12/05 03:43:16;;;;;;;0.40;0.10;;;;;;;;;;5036132;28;20056;-75
2021/12/05 03:45:46;;;;;;;0.60;0.30;;;;;;;;;;5035985;28;20033;-74
2021/12/05 03:48:13;;;;;;;0.35;0.20;;;;;;;;;;5035933;28;20033;-74
2021/12/05 03:50:40;;;;;;;0.20;0.10;;;;;;;;;;5035488;28;20530;-74
2021/12/05 03:53:07;;;;;;;0.60;0.20;;;;;;;;;;5035781;28;20029;-75
2021/12/05 03:55:33;;;;;;;0.57;0.15;;;;;;;;;;5035710;28;20029;-74
2021/12/05 03:57:58;;;;;;;0.98;0.20;;;;;;;;;;5035859;28;20041;-74
2021/12/05 04:00:28;;;;;;;0.10;0.10;;;;;;;;;;5035560;28;20546;-74
2021/12/05 04:02:56;;;;;;;0.20;0.00;;;;;;;;;;5035632;28;20459;-74
2021/12/05 04:05:23;;;;;;;1.23;0.20;;;;;;;;;;5035663;28;20061;-74
2021/12/05 04:07:49;;;;;;;0.88;0.20;;;;;;;;;;5035414;28;20030;-75
2021/12/05 04:10:15;;;;;;;1.05;0.22;;;;;;;;;;5035616;28;20099;-74
2021/12/05 04:12:42;;;;;;;1.13;0.15;;;;;;;;;;5034622;28;20049;-74
2021/12/05 04:15:10;;;;;;;0.30;0.20;;;;;;;;;;5035407;28;20091;-73
2021/12/05 04:17:36;;;;;;;0.28;0.08;;;;;;;;;;5034313;28;20030;-73
2021/12/05 04:20:05;;;;;;;1.00;0.30;;;;;;;;;;5035383;28;20463;-74
2021/12/05 04:22:30;;;;;;;0.25;0.10;;;;;;;;;;5035073;28;20100;-74
2021/12/05 04:24:56;;;;;;;0.90;0.30;;;;;;;;;;5035415;28;20116;-75
2021/12/05 04:27:22;;;;;;;0.32;0.17;;;;;;;;;;5035251;28;20461;-74
2021/12/05 04:29:47;;;;;;;1.80;0.30;;;;;;;;;;5034316;28;20052;-75
2021/12/05 04:32:13;;;;;;;0.80;0.20;;;;;;;;;;5034967;28;20030;-74
2021/12/05 04:34:39;;;;;;;0.15;0.10;;;;;;;;;;5034945;28;20394;-74
2021/12/05 04:37:05;;;;;;;0.63;0.15;;;;;;;;;;5035038;28;20368;-74
2021/12/05 04:39:31;;;;;;;1.90;0.38;;;;;;;;;;5035186;28;20022;-74
2021/12/05 04:41:57;;;;;;;0.45;0.20;;;;;;;;;;5035019;28;20394;-73
2021/12/05 04:44:24;;;;;;;1.70;0.30;;;;;;;;;;5035030;28;20021;-74
2021/12/05 04:46:50;;;;;;;0.30;0.20;;;;;;;;;;5034799;28;20048;-75
2021/12/05 04:49:16;;;;;;;1.38;0.30;;;;;;;;;;5034831;28;20152;-74
2021/12/05 04:51:44;;;;;;;0.47;0.20;;;;;;;;;;5034493;28;20100;-75
2021/12/05 04:54:14;;;;;;;0.45;0.22;;;;;;;;;;5034878;28;20029;-74
2021/12/05 04:56:40;;;;;;;0.50;0.13;;;;;;;;;;5034598;28;20037;-74
2021/12/05 04:59:14;;;;;;;0.28;0.10;;;;;;;;;;5034624;28;20043;-75
2021/12/05 05:01:43;;;;;;;0.43;0.20;;;;;;;;;;5034522;28;20091;-75
2021/12/05 05:04:21;;;;;;;0.17;0.13;;;;;;;;;;5034604;28;20025;-73
2021/12/05 05:06:47;;;;;;;0.88;0.28;;;;;;;;;;5034363;28;20102;-74
2021/12/05 05:09:13;;;;;;;0.32;0.10;;;;;;;;;;5034431;28;20129;-74
2021/12/05 05:11:41;;;;;;;0.73;0.20;;;;;;;;;;5034199;28;20022;-76
2021/12/05 05:14:07;;;;;;;0.60;0.20;;;;;;;;;;5034039;28;20080;-74
2021/12/05 05:16:33;;;;;;;1.67;0.20;;;;;;;;;;5034176;28;20036;-74
2021/12/05 05:19:00;;;;;;;0.60;0.25;;;;;;;;;;5034201;28;20033;-73
2021/12/05 05:21:41;;;;;;;0.25;0.10;;;;;;;;;;5033978;28;20166;-74
2021/12/05 05:46:14;;;;;;;0.38;0.17;;;;;;;;;;4963713;28;20050;-75
2021/12/05 05:48:47;;;;;;;0.63;0.30;;;;;;;;;;5033921;28;20037;-75
2021/12/05 05:51:13;;;;;;;0.10;0.10;;;;;;;;;;5033616;28;20112;-74
2021/12/05 05:53:39;;;;;;;0.82;0.20;;;;;;;;;;5033615;28;20112;-75
2021/12/05 05:56:09;;;;;;;1.33;0.50;;;;;;;;;;5033541;28;20029;-73
2021/12/05 05:58:42;;;;;;;1.23;0.30;;;;;;;;;;5033625;28;20029;-77
2021/12/05 06:01:18;;;;;;;1.65;0.30;;;;;;;;;;5033434;28;20045;-76
2021/12/05 06:03:44;;;;;;;1.98;0.25;;;;;;;;;;5033375;28;20040;-75
2021/12/05 06:06:13;;;;;;;1.38;0.50;;;;;;;;;;5033582;28;20112;-76
2021/12/05 06:08:40;;;;;;;0.60;0.40;;;;;;;;;;5033461;28;20029;-76
2021/12/05 06:11:12;;;;;;;0.82;0.40;;;;;;;;;;5033285;28;20029;-76
2021/12/05 06:13:39;;;;;;;0.65;0.40;;;;;;;;;;5032967;28;20077;-76
2021/12/05 06:16:07;;;;;;;1.70;0.40;;;;;;;;;;5033360;28;20045;-75
2021/12/05 06:18:33;;;;;;;6.70;0.38;;;;;;;;;;5033363;28;20094;-75
2021/12/05 06:21:00;;;;;;;0.98;0.30;;;;;;;;;;5033407;28;20037;-75
2021/12/05 06:23:26;;;;;;;0.77;0.40;;;;;;;;;;5033005;28;20105;-75
2021/12/05 06:25:52;;;;;;;1.50;0.30;;;;;;;;;;5033156;28;20040;-76
2021/12/05 06:28:28;;;;;;;0.50;0.20;;;;;;;;;;5033331;28;20029;-75
2021/12/05 06:42:05;;;;;;;0.80;0.20;;;;;;;;;;5033058;28;20040;-75
2021/12/05 06:47:19;;;;;;;1.45;0.43;;;;;;;;;;5033153;28;20370;-75
2021/12/05 06:49:45;;;;;;;0.47;0.30;;;;;;;;;;5032842;28;20044;-76
2021/12/05 06:52:11;;;;;;;1.08;0.40;;;;;;;;;;5032892;28;20025;-75
2021/12/05 06:54:40;;;;;;;2.13;0.35;;;;;;;;;;5033025;28;20025;-75
2021/12/05 06:57:07;;;;;;;0.77;0.40;;;;;;;;;;5036097;28;20040;-75
2021/12/05 06:59:34;;;;;;;0.43;0.30;;;;;;;;;;5036944;28;20040;-77
2021/12/05 07:02:01;;;;;;;0.25;0.25;;;;;;;;;;5036675;28;20044;-76
2021/12/05 07:07:19;;;;;;;0.77;0.40;;;;;;;;;;5037024;28;20078;-75
2021/12/05 07:09:46;;;;;;;0.55;0.20;;;;;;;;;;5036514;28;20033;-75
2021/12/05 07:15:04;;;;;;;0.60;0.30;;;;;;;;;;5036381;28;20048;-76
2021/12/05 07:23:07;;;;;;;1.25;0.40;;;;;;;;;;5036711;28;20497;-75
2021/12/05 07:26:05;;;;;;;2.97;0.47;;;;;;;;;;5036346;28;20492;-76
2021/12/05 07:42:06;;;;;;;1.00;0.60;;;;;;;;;;5035848;28;20382;-76
2021/12/05 07:44:32;;;;;;;3.13;0.70;;;;;;;;;;5036151;28;20517;-76
2021/12/05 07:46:57;;;;;;;2.38;0.50;;;;;;;;;;5035959;28;20029;-76
2021/12/05 07:49:23;;;;;;;1.40;0.80;;;;;;;;;;5035921;28;20025;-75
2021/12/05 07:51:50;;;;;;;1.63;0.57;;;;;;;;;;5034634;28;20029;-76
2021/12/05 07:54:42;;;;;;;1.40;0.60;;;;;;;;;;5035846;28;20026;-75
2021/12/05 08:15:58;;;;;;;2.35;0.50;;;;;;;;;;5035376;28;20040;-75
2021/12/05 08:18:23;;;;;;;;;;;;;;;;;;5034775;28;20481;-75
2021/12/05 08:20:49;;;;;;;1.65;0.50;;;;;;;;;;5035302;28;19917;-75
2021/12/05 08:23:16;;;;;;;1.42;0.50;;;;;;;;;;5035166;28;20017;-74
2021/12/05 08:25:46;;;;;;;1.20;0.50;;;;;;;;;;5035184;28;20035;-76
2021/12/05 08:28:32;;;;;;;1.10;0.38;;;;;;;;;;5035243;28;20489;-76
2021/12/05 08:31:10;;;;;;;0.85;0.40;;;;;;;;;;5031675;28;20484;-73
2021/12/05 08:39:58;;;;;;;0.55;0.40;;;;;;;;;;5035230;28;20382;-71
2021/12/05 09:20:27;;;;;;;0.95;0.43;;;;;;;;;;5032343;28;20378;-72
2021/12/05 09:23:32;;;;;;;1.38;0.40;;;;;;;;;;5032529;28;20769;-70
2021/12/05 09:26:06;;;;;;;1.00;0.30;;;;;;;;;;5032716;28;20513;-72
2021/12/05 09:28:54;;;;;;;0.47;0.30;;;;;;;;;;5029198;28;20033;-72
2021/12/05 09:38:30;;;;;;;0.82;0.30;;;;;;;;;;5030791;28;20037;-72
2021/12/05 10:07:20;;;;;;;1.35;0.50;;;;;;;;;;5033311;28;20099;-69
2021/12/05 10:15:15;;;;;;;1.83;0.60;;;;;;;;;;5030548;28;20041;-73
2021/12/05 10:26:37;;;;;;;3.08;1.00;;;;;;;;;;5031398;28;20048;-72
2021/12/05 10:35:30;;;;;;;4.25;0.90;;;;;;;;;;5036546;28;20048;-71
2021/12/05 10:38:06;;;;;;;2.45;1.15;;;;;;;;;;5036677;28;20037;-73
2021/12/05 10:40:42;;;;;;;4.43;1.45;;;;;;;;;;5036776;28;20036;-71
2021/12/05 10:43:34;;;;;;;4.90;1.40;;;;;;;;;;5036294;28;20048;-73
2021/12/05 10:46:11;;;;;;;2.70;1.00;;;;;;;;;;5036216;28;20041;-71
2021/12/05 10:48:41;;;;;;;2.50;1.00;;;;;;;;;;5036561;28;20029;-73
2021/12/05 10:51:15;;;;;;;1.45;0.70;;;;;;;;;;5036630;28;20033;-73
2021/12/05 10:53:48;;;;;;;2.28;0.63;;;;;;;;;;5036207;28;20045;-72
2021/12/05 10:56:17;;;;;;;4.40;1.38;;;;;;;;;;5035416;28;20029;-72
2021/12/05 10:59:00;;;;;;;6.05;1.92;;;;;;;;;;5036222;28;20057;-72
2021/12/05 11:01:43;;;;;;;4.80;1.90;;;;;;;;;;5036418;28;20393;-72
2021/12/05 11:04:12;;;;;;;5.15;1.42;;;;;;;;;;5036119;28;20091;-71
2021/12/05 11:06:50;;;;;;;3.40;1.20;;;;;;;;;;5035330;28;20033;-70
2021/12/05 11:09:17;;;;;;;3.03;1.05;;;;;;;;;;5036272;28;20116;-70
2021/12/05 11:11:47;;;;;;;4.28;1.00;;;;;;;;;;5036052;28;20494;-72
2021/12/05 11:14:20;;;;;;;5.13;1.00;;;;;;;;;;5035477;28;20136;-73
2021/12/05 11:16:50;;;;;;;2.67;0.90;;;;;;;;;;5036244;28;20497;-72
2021/12/05 11:19:41;;;;;;;3.72;0.90;;;;;;;;;;5034063;28;20026;-73
2021/12/05 11:22:16;;;;;;;3.95;1.20;;;;;;;;;;5025384;28;20501;-71
2021/12/05 11:24:56;;;;;;;1.27;0.63;;;;;;;;;;5034945;28;20064;-71
2021/12/05 11:27:33;;;;;;;1.30;0.60;;;;;;;;;;5035309;28;20111;-71
2021/12/05 11:30:10;;;;;;;1.63;0.50;;;;;;;;;;5029062;28;20029;-73
2021/12/05 11:32:44;;;;;;;2.22;0.75;;;;;;;;;;5035321;28;20033;-72
2021/12/05 11:35:16;;;;;;;3.88;1.80;;;;;;;;;;5034834;28;20025;-71
2021/12/05 11:38:03;;;;;;;2.28;1.00;;;;;;;;;;5034168;28;20087;-71
2021/12/05 11:40:41;;;;;;;2.25;1.10;;;;;;;;;;5035217;28;20090;-71
2021/12/05 11:43:07;;;;;;;2.60;1.05;;;;;;;;;;5034925;28;20044;-69
2021/12/05 11:45:59;;;;;;;2.13;1.00;;;;;;;;;;5034719;28;20033;-71
2021/12/05 11:48:39;;;;;;;2.10;0.90;;;;;;;;;;5035205;28;20047;-71
2021/12/05 11:51:52;;;;;;;3.55;1.00;;;;;;;;;;5034472;28;20107;-71
2021/12/05 11:54:24;;;;;;;1.73;0.80;;;;;;;;;;5032706;28;20386;-69
2021/12/05 11:56:59;;;;;;;4.35;0.98;;;;;;;;;;5033381;28;20033;-70
2021/12/05 11:59:37;;;;;;;1.58;0.80;;;;;;;;;;5034010;28;20033;-70
2021/12/05 12:02:20;;;;;;;2.20;0.85;;;;;;;;;;5034071;28;20176;-71
2021/12/05 12:04:49;;;;;;;2.00;0.70;;;;;;;;;;5033979;28;20053;-71
2021/12/05 12:07:27;;;;;;;3.03;0.77;;;;;;;;;;5033729;28;20373;-71
2021/12/05 12:10:08;;;;;;;2.65;0.80;;;;;;;;;;5035491;28;20108;-71
2021/12/05 12:12:35;;;;;;;3.25;1.10;;;;;;;;;;5035837;28;20030;-71
2021/12/05 12:15:01;;;;;;;1.38;0.73;;;;;;;;;;5033959;28;20510;-71
2021/12/05 12:17:27;;;;;;;1.70;0.70;;;;;;;;;;5035333;28;20033;-71
2021/12/05 12:19:54;;;;;;;2.28;0.80;;;;;;;;;;5035319;28;20195;-71
2021/12/05 12:22:22;;;;;;;2.50;1.00;;;;;;;;;;5035186;28;20505;-72
2021/12/05 12:24:54;;;;;;;3.22;1.13;;;;;;;;;;5035030;28;20025;-72
2021/12/05 12:27:21;;;;;;;3.10;1.30;;;;;;;;;;5035350;28;20041;-71
2021/12/05 12:29:48;;;;;;;8.88;4.20;;;;;;;;;;5035109;28;20036;-73
2021/12/05 12:32:17;;;;;;;5.22;2.83;;;;;;;;;;5035141;28;20104;-73
2021/12/05 12:34:43;;;;;;;7.05;3.95;;;;;;;;;;5034865;28;20029;-73
2021/12/05 12:37:10;;;;;;;2.40;1.17;;;;;;;;;;5034881;28;20045;-73
2021/12/05 12:39:49;;;;;;;5.85;1.40;;;;;;;;;;5035038;28;20112;-73
2021/12/05 12:42:25;;;;;;;3.67;2.40;;;;;;;;;;5034936;28;20033;-72
2021/12/05 12:45:14;;;;;;;2.28;0.90;;;;;;;;;;5034791;28;20029;-72
2021/12/05 12:47:46;;;;;;;1.92;0.63;;;;;;;;;;5034631;28;20509;-73
2021/12/05 12:50:41;;;;;;;4.30;1.40;;;;;;;;;;5035006;28;20033;-73
2021/12/05 12:53:20;;;;;;;3.58;1.90;;;;;;;;;;5032247;28;20131;-73
2021/12/05 12:56:08;;;;;;;5.57;3.05;;;;;;;;;;5034087;28;20029;-74
2021/12/05 12:58:46;;;;;;;2.22;1.10;;;;;;;;;;5029918;28;20465;-73
2021/12/05 13:04:50;;;;;;;8.35;4.05;;;;;;;;;;5033949;28;20061;-72
2021/12/05 13:10:30;;;;;;;2.08;1.30;;;;;;;;;;5034177;28;20052;-71
2021/12/05 13:13:06;;;;;;;0.57;0.50;;;;;;;;;;5033706;28;20118;-72
2021/12/05 13:16:00;;;;;;;0.80;0.60;;;;;;;;;;5033934;28;20045;-72
2021/12/05 13:18:33;;;;;;;1.13;0.88;;;;;;;;;;5028703;28;20033;-73
2021/12/05 13:21:01;;;;;;;2.42;0.75;;;;;;;;;;5033851;28;20518;-72
2021/12/05 13:23:33;;;;;;;1.63;0.60;;;;;;;;;;5033891;28;20033;-72
2021/12/05 13:26:08;;;;;;;0.70;0.57;;;;;;;;;;5033337;28;20037;-72
2021/12/05 13:28:43;;;;;;;1.70;0.60;;;;;;;;;;5033950;28;20112;-73
2021/12/05 13:31:50;;;;;;;1.98;1.35;;;;;;;;;;5033457;28;20482;-72
2021/12/05 13:34:25;;;;;;;1.20;0.60;;;;;;;;;;5023210;28;20121;-71
2021/12/05 13:36:57;;;;;;;1.80;0.82;;;;;;;;;;5033368;28;20033;-72
2021/12/05 13:39:34;;;;;;;2.92;1.20;;;;;;;;;;5033714;28;20103;-72
2021/12/05 13:42:08;;;;;;;1.42;0.60;;;;;;;;;;5033690;28;20033;-72
2021/12/05 13:45:06;;;;;;;3.97;1.20;;;;;;;;;;5033895;28;20025;-72
2021/12/05 13:47:44;;;;;;;1.70;0.40;;;;;;;;;;5033444;28;20104;-72
2021/12/05 13:50:19;;;;;;;4.57;1.58;;;;;;;;;;5032006;28;20029;-72
2021/12/05 13:52:49;;;;;;;0.80;0.40;;;;;;;;;;5032084;28;20116;-72
2021/12/05 13:55:43;;;;;;;1.20;0.68;;;;;;;;;;5031887;28;20032;-72
2021/12/05 14:01:17;;;;;;;2.35;0.95;;;;;;;;;;5032319;28;20450;-71
2021/12/05 14:04:05;;;;;;;1.25;0.70;;;;;;;;;;5032248;28;20045;-71
2021/12/05 14:06:44;;;;;;;1.17;0.60;;;;;;;;;;5032523;28;20490;-71
2021/12/05 14:09:27;;;;;;;4.40;2.22;;;;;;;;;;5033679;28;20033;-70
2021/12/05 14:12:00;;;;;;;5.03;2.38;;;;;;;;;;5033499;28;20036;-71
2021/12/05 14:14:31;;;;;;;2.42;1.48;;;;;;;;;;5033322;28;20046;-70
2021/12/05 14:17:01;;;;;;;8.57;4.57;;;;;;;;;;5032860;28;20057;-70
2021/12/05 14:19:30;;;;;;;4.97;3.03;;;;;;;;;;5032371;28;20028;-71
2021/12/05 14:21:58;;;;;;;9.60;5.50;;;;;;;;;;5033224;28;20087;-73
2021/12/05 14:24:28;;;;;;;4.40;3.00;;;;;;;;;;5033345;28;20030;-69
2021/12/05 14:26:56;;;;;;;3.88;2.70;;;;;;;;;;5033223;28;20029;-70
2021/12/05 14:29:26;;;;;;;23.48;14.73;;;;;;;;;;5031436;28;20041;-74
2021/12/05 14:31:59;;;;;;;18.20;10.63;;;;;;;;;;5032744;28;20108;-73
2021/12/05 14:34:25;;;;;;;20.48;12.20;;;;;;;;;;5033294;28;20375;-71
2021/12/05 14:37:15;;;;;;;25.98;14.38;;;;;;;;;;5032871;28;20128;-72
2021/12/05 14:39:46;;;;;;;41.63;22.73;;;;;;;;;;5030691;28;20241;-74
2021/12/05 14:42:18;;;;;;;29.98;16.92;;;;;;;;;;5032222;28;20378;-70
2021/12/05 14:44:47;;;;;;;11.82;7.47;;;;;;;;;;5032978;28;20374;-70
2021/12/05 14:47:16;;;;;;;9.15;4.72;;;;;;;;;;5029618;28;20421;-72
2021/12/05 14:50:12;;;;;;;6.13;2.60;;;;;;;;;;5032346;28;20072;-72
2021/12/05 14:52:40;;;;;;;7.47;3.03;;;;;;;;;;5026788;28;20072;-73
2021/12/05 14:55:09;;;;;;;10.38;4.03;;;;;;;;;;5031868;28;20037;-72
2021/12/05 14:57:44;;;;;;;10.25;3.58;;;;;;;;;;5032449;28;20037;-70
2021/12/05 15:00:17;;;;;;;9.18;3.25;;;;;;;;;;5032244;28;20033;-73
2021/12/05 15:02:42;;;;;;;16.95;8.50;;;;;;;;;;5029237;28;20076;-73
2021/12/05 15:05:11;;;;;;;5.53;3.00;;;;;;;;;;5029796;28;20457;-68
2021/12/05 15:07:37;;;;;;;1.85;1.10;;;;;;;;;;5028491;28;20040;-69
2021/12/05 15:10:04;;;;;;;11.70;5.75;;;;;;;;;;5030089;28;20033;-72
2021/12/05 15:12:33;;;;;;;29.50;15.15;;;;;;;;;;5030104;28;20045;-70
2021/12/05 15:15:02;;;;;;;6.55;3.60;;;;;;;;;;5029798;28;20053;-72
2021/12/05 15:17:34;;;;;;;26.60;13.65;;;;;;;;;;5031949;28;20124;-69
2021/12/05 15:20:06;;;;;;;12.63;6.35;;;;;;;;;;5028426;28;20041;-72
2021/12/05 15:22:32;;;;;;;23.15;10.90;;;;;;;;;;5033661;28;20037;-73
2021/12/05 15:25:01;;;;;;;22.65;12.05;;;;;;;;;;5034804;28;20632;-73
2021/12/05 15:27:30;;;;;;;7.82;4.05;;;;;;;;;;5036102;28;20087;-73
2021/12/05 15:30:00;;;;;;;5.90;3.22;;;;;;;;;;5029498;28;20113;-73
2021/12/05 15:32:29;;;;;;;8.30;3.30;;;;;;;;;;5034088;28;20033;-73
2021/12/05 15:34:58;;;;;;;8.40;3.78;;;;;;;;;;5036288;28;20036;-73
2021/12/05 15:37:24;;;;;;;9.30;3.80;;;;;;;;;;5035976;28;20096;-72
2021/12/05 15:39:53;;;;;;;8.23;3.22;;;;;;;;;;5036170;28;20029;-71
2021/12/05 15:42:23;;;;;;;12.02;6.97;;;;;;;;;;5035879;28;20029;-72
2021/12/05 15:44:51;;;;;;;11.70;4.47;;;;;;;;;;5033994;28;25267;-72
2021/12/05 15:47:23;;;;;;;16.73;10.10;;;;;;;;;;5035553;28;20029;-74
2021/12/05 15:50:00;;;;;;;17.50;9.60;;;;;;;;;;5036115;28;20505;-73
2021/12/05 15:52:31;;;;;;;16.17;6.50;;;;;;;;;;5035953;28;20040;-71
2021/12/05 15:54:57;;;;;;;13.77;6.40;;;;;;;;;;5035917;28;20095;-70
2021/12/05 15:57:31;;;;;;;18.50;8.95;;;;;;;;;;5035544;28;20033;-71
2021/12/05 16:00:00;;;;;;;27.50;10.90;;;;;;;;;;5035789;28;20033;-71
2021/12/05 16:02:26;;;;;;;18.83;7.82;;;;;;;;;;5051363;28;20040;-73
2021/12/05 16:04:52;;;;;;;56.67;21.20;;;;;;;;;;5035710;28;20060;-70
2021/12/05 16:07:24;;;;;;;28.38;11.68;;;;;;;;;;5035428;28;20025;-70
2021/12/05 16:09:49;;;;;;;18.63;7.35;;;;;;;;;;5035684;28;20064;-70
2021/12/05 16:12:18;;;;;;;33.03;12.30;;;;;;;;;;5035503;28;20064;-71
2021/12/05 16:14:49;;;;;;;25.25;9.65;;;;;;;;;;5035308;28;20045;-71
2021/12/05 16:17:29;;;;;;;83.18;28.00;;;;;;;;;;5035323;28;20072;-73
2021/12/05 16:20:20;;;;;;;69.37;26.77;;;;;;;;;;5034829;28;20428;-72
2021/12/05 16:23:08;;;;;;;47.83;19.08;;;;;;;;;;5033726;28;20025;-68
2021/12/05 16:25:46;;;;;;;36.65;16.00;;;;;;;;;;5033939;28;20029;-74
2021/12/05 16:28:14;;;;;;;43.30;18.90;;;;;;;;;;5034896;28;20040;-76
2021/12/05 16:30:48;;;;;;;44.72;19.35;;;;;;;;;;5034878;28;20361;-75
2021/12/05 16:33:15;;;;;;;35.20;14.95;;;;;;;;;;5035160;28;20040;-75
2021/12/05 16:35:49;;;;;;;32.97;15.45;;;;;;;;;;5034285;28;20029;-75
2021/12/05 16:38:21;;;;;;;32.17;14.23;;;;;;;;;;5034951;28;20079;-72
2021/12/05 16:41:12;;;;;;;30.90;14.05;;;;;;;;;;5034226;28;20103;-74
2021/12/05 16:43:46;;;;;;;24.10;10.52;;;;;;;;;;5034886;28;20903;-74
2021/12/05 16:46:17;;;;;;;30.25;13.63;;;;;;;;;;5034991;28;20095;-73
2021/12/05 16:48:44;;;;;;;33.17;16.02;;;;;;;;;;5034621;28;20100;-76
2021/12/05 16:51:20;;;;;;;18.55;9.45;;;;;;;;;;5035083;28;20041;-74
2021/12/05 16:53:50;;;;;;;26.02;12.18;;;;;;;;;;5034805;28;20033;-74
2021/12/05 16:56:34;;;;;;;21.70;10.77;;;;;;;;;;5034722;28;20481;-74
2021/12/05 16:59:24;;;;;;;40.63;17.35;;;;;;;;;;5034694;28;20037;-74
2021/12/05 17:02:10;;;;;;;37.67;15.77;;;;;;;;;;5034887;28;20481;-75
2021/12/05 17:05:03;;;;;;;29.63;12.70;;;;;;;;;;5034489;28;20030;-74
2021/12/05 17:07:55;;;;;;;17.42;7.80;;;;;;;;;;5034359;28;20589;-74
2021/12/05 17:10:20;;;;;;;26.42;10.80;;;;;;;;;;5034374;28;20176;-75
2021/12/05 17:12:49;;;;;;;26.90;11.00;;;;;;;;;;5034235;28;20067;-75
2021/12/05 17:15:22;;;;;;;28.13;12.35;;;;;;;;;;5034237;28;20030;-75
2021/12/05 17:17:48;;;;;;;27.92;12.07;;;;;;;;;;5034228;28;20025;-75
2021/12/05 17:20:28;;;;;;;27.38;14.55;;;;;;;;;;5034187;28;20485;-73
2021/12/05 17:22:58;;;;;;;29.27;14.95;;;;;;;;;;5034286;28;20031;-75
2021/12/05 17:25:37;;;;;;;29.10;14.70;;;;;;;;;;5034046;28;20108;-75
2021/12/05 17:28:06;;;;;;;31.42;17.15;;;;;;;;;;5033930;28;20032;-74
2021/12/05 17:30:32;;;;;;;26.83;14.02;;;;;;;;;;5025742;28;20033;-75
2021/12/05 17:32:59;;;;;;;27.58;15.15;;;;;;;;;;5034096;28;20037;-73
2021/12/05 17:35:30;;;;;;;36.20;20.30;;;;;;;;;;5033809;28;20026;-74
2021/12/05 17:37:56;;;;;;;;;;;;;;;;;;5034316;28;20068;-74
2021/12/05 17:40:22;;;;;;;35.70;18.63;;;;;;;;;;5033355;28;19983;-74
2021/12/05 17:42:47;;;;;;;37.95;19.80;;;;;;;;;;5033851;28;20405;-75
2021/12/05 17:45:15;;;;;;;38.03;19.70;;;;;;;;;;5033174;28;20033;-75
2021/12/05 17:47:41;;;;;;;29.17;16.20;;;;;;;;;;5033425;28;20425;-75
2021/12/05 17:50:12;;;;;;;18.10;10.50;;;;;;;;;;5049419;28;20029;-75
2021/12/05 17:52:38;;;;;;;18.67;9.15;;;;;;;;;;5033722;28;20061;-75
2021/12/05 17:55:18;;;;;;;14.95;8.95;;;;;;;;;;5033942;28;20072;-74
2021/12/05 17:57:50;;;;;;;17.38;10.43;;;;;;;;;;5033756;28;20029;-74
2021/12/05 18:02:54;;;;;;;21.95;14.00;;;;;;;;;;5033616;28;20033;-74
2021/12/05 18:05:22;;;;;;;18.13;10.95;;;;;;;;;;5033390;28;20025;-75
2021/12/05 18:07:50;;;;;;;19.77;10.15;;;;;;;;;;5032423;28;20052;-74
2021/12/05 18:10:18;;;;;;;16.55;8.95;;;;;;;;;;5033845;28;20026;-74
2021/12/05 18:12:45;;;;;;;11.18;5.38;;;;;;;;;;5033407;28;20044;-75
2021/12/05 18:15:19;;;;;;;10.00;5.78;;;;;;;;;;5033278;28;20489;-74
2021/12/05 18:17:45;;;;;;;44.80;18.55;;;;;;;;;;5033242;28;20497;-75
2021/12/05 18:20:14;;;;;;;25.15;10.68;;;;;;;;;;5033329;28;20029;-75
2021/12/05 18:22:40;;;;;;;19.13;9.77;;;;;;;;;;5033463;28;20095;-73
2021/12/05 18:25:09;;;;;;;24.42;13.43;;;;;;;;;;5033465;28;20518;-73
2021/12/05 18:27:35;;;;;;;40.13;20.13;;;;;;;;;;5033160;28;20168;-73
2021/12/05 18:30:01;;;;;;;26.15;14.02;;;;;;;;;;5032816;28;20025;-75
2021/12/05 18:32:27;;;;;;;16.77;9.32;;;;;;;;;;5033270;28;20029;-75
2021/12/05 18:34:53;;;;;;;20.00;11.88;;;;;;;;;;5033170;28;20029;-75
2021/12/05 18:37:20;;;;;;;19.95;10.90;;;;;;;;;;5033028;28;20482;-74
2021/12/05 18:39:51;;;;;;;25.45;13.82;;;;;;;;;;5032941;28;20082;-74
2021/12/05 18:42:20;;;;;;;18.95;10.32;;;;;;;;;;5033022;28;20040;-74
2021/12/05 18:44:52;;;;;;;24.10;12.68;;;;;;;;;;5033047;28;20022;-73
2021/12/05 18:47:20;;;;;;;24.13;12.25;;;;;;;;;;5032965;28;20033;-75
2021/12/05 18:49:46;;;;;;;16.70;8.30;;;;;;;;;;5032973;28;20040;-73
2021/12/05 18:52:13;;;;;;;20.27;9.77;;;;;;;;;;5036605;28;20038;-74
2021/12/05 18:54:42;;;;;;;39.05;17.38;;;;;;;;;;5036812;28;20470;-74
2021/12/05 18:57:18;;;;;;;15.18;8.93;;;;;;;;;;5036978;28;20541;-73
2021/12/05 18:59:57;;;;;;;24.75;12.52;;;;;;;;;;5037131;28;20030;-73
2021/12/05 19:05:11;;;;;;;34.17;17.13;;;;;;;;;;5037119;28;20091;-73
2021/12/05 19:07:50;;;;;;;28.17;13.00;;;;;;;;;;5036457;28;20040;-73
2021/12/05 19:13:01;;;;;;;22.25;11.27;;;;;;;;;;5036647;28;20040;-74
2021/12/05 19:15:28;;;;;;;18.63;9.35;;;;;;;;;;5036582;28;20029;-74
2021/12/05 19:17:55;;;;;;;20.13;10.75;;;;;;;;;;5036492;28;20086;-74
2021/12/05 19:20:24;;;;;;;17.67;8.35;;;;;;;;;;5036422;28;20038;-73
2021/12/05 19:22:50;;;;;;;22.55;9.82;;;;;;;;;;5036450;28;20445;-74
2021/12/05 19:25:21;;;;;;;15.45;7.88;;;;;;;;;;5036421;28;20115;-73
2021/12/05 19:27:49;;;;;;;12.82;6.43;;;;;;;;;;5035396;28;20059;-75
2021/12/05 19:30:28;;;;;;;12.57;6.90;;;;;;;;;;5036296;28;20033;-73
2021/12/05 19:32:55;;;;;;;15.70;8.18;;;;;;;;;;5036278;28;20091;-74
2021/12/05 19:35:22;;;;;;;22.10;10.82;;;;;;;;;;5036145;28;20108;-74
2021/12/05 19:37:47;;;;;;;26.05;13.95;;;;;;;;;;5035901;28;20037;-75
2021/12/05 19:40:17;;;;;;;30.20;14.85;;;;;;;;;;5036289;28;20076;-74
2021/12/05 19:42:44;;;;;;;36.45;18.20;;;;;;;;;;5036843;28;20026;-73
2021/12/05 19:45:12;;;;;;;30.80;14.63;;;;;;;;;;5036065;28;20386;-75
2021/12/05 19:47:38;;;;;;;37.20;17.08;;;;;;;;;;5035703;28;20030;-75
2021/12/05 19:50:05;;;;;;;22.67;10.00;;;;;;;;;;5036045;28;20534;-73
2021/12/05 19:52:31;;;;;;;16.83;8.30;;;;;;;;;;5035983;28;20454;-73
2021/12/05 19:54:57;;;;;;;21.67;9.32;;;;;;;;;;5035815;28;20032;-72
2021/12/05 19:57:22;;;;;;;16.13;7.05;;;;;;;;;;5035819;28;20029;-73
2021/12/05 19:59:48;;;;;;;22.08;9.32;;;;;;;;;;5035232;28;20049;-75
2021/12/05 20:02:14;;;;;;;65.00;24.30;;;;;;;;;;5035171;28;20112;-73
2021/12/05 20:04:40;;;;;;;49.13;21.52;;;;;;;;;;5035551;28;20021;-75
2021/12/05 20:07:06;;;;;;;30.27;17.13;;;;;;;;;;5035788;28;20446;-75
2021/12/05 20:09:32;;;;;;;30.17;15.73;;;;;;;;;;5035303;28;20044;-74
2021/12/05 20:11:58;;;;;;;28.80;14.13;;;;;;;;;;5035696;28;20037;-75
2021/12/05 20:14:25;;;;;;;23.00;12.15;;;;;;;;;;5035541;28;20088;-75
2021/12/05 20:16:52;;;;;;;30.98;16.25;;;;;;;;;;5035344;28;20029;-75
2021/12/05 20:19:18;;;;;;;25.42;13.38;;;;;;;;;;5035288;28;20091;-75
2021/12/05 20:21:46;;;;;;;12.45;6.82;;;;;;;;;;5035453;28;20041;-75